sensor_id;sensor_type;location;lat;lon;timestamp;pressure;altitude;pressure_sealevel;temperature;humidity
73952;BME280;62304;47.662;18.324;2022-09-01T00:00:34;100346.09;;;18.29;85.62
73952;BME280;62304;47.662;18.324;2022-09-01T00:03:39;100350.56;;;18.27;85.26
73952;BME280;62304;47.662;18.324;2022-09-01T00:06:43;100355.75;;;18.28;85.26
73952;BME280;62304;47.662;18.324;2022-09-01T00:09:46;100341.16;;;18.10;86.44
73952;BME280;62304;47.662;18.324;2022-09-01T00:12:49;100341.66;;;18.02;87.57
73952;BME280;62304;47.662;18.324;2022-09-01T00:15:52;100328.47;;;17.99;87.75
73952;BME280;62304;47.662;18.324;2022-09-01T00:18:56;100324.69;;;18.12;87.07
73952;BME280;62304;47.662;18.324;2022-09-01T00:21:59;100322.06;;;17.98;87.75
73952;BME280;62304;47.662;18.324;2022-09-01T00:25:03;100329.88;;;17.84;88.75
73952;BME280;62304;47.662;18.324;2022-09-01T00:28:07;100320.59;;;17.87;88.67
73952;BME280;62304;47.662;18.324;2022-09-01T00:31:10;100323.47;;;17.83;88.42
73952;BME280;62304;47.662;18.324;2022-09-01T00:34:13;100321.38;;;17.91;88.40
73952;BME280;62304;47.662;18.324;2022-09-01T00:37:16;100327.09;;;17.80;88.85
73952;BME280;62304;47.662;18.324;2022-09-01T00:40:19;100333.41;;;17.88;88.75
73952;BME280;62304;47.662;18.324;2022-09-01T00:43:39;100335.13;;;17.78;89.26
73952;BME280;62304;47.662;18.324;2022-09-01T00:46:46;100339.06;;;17.84;89.26
73952;BME280;62304;47.662;18.324;2022-09-01T00:49:56;100336.28;;;17.84;89.44
73952;BME280;62304;47.662;18.324;2022-09-01T00:53:01;100330.41;;;17.72;89.72
73952;BME280;62304;47.662;18.324;2022-09-01T00:56:06;100346.06;;;17.69;90.27
73952;BME280;62304;47.662;18.324;2022-09-01T00:59:11;100342.06;;;17.67;89.62
73952;BME280;62304;47.662;18.324;2022-09-01T01:02:17;100345.87;;;17.53;89.73
73952;BME280;62304;47.662;18.324;2022-09-01T01:05:25;100342.47;;;17.69;88.85
73952;BME280;62304;47.662;18.324;2022-09-01T01:08:32;100347.12;;;17.82;88.96
73952;BME280;62304;47.662;18.324;2022-09-01T01:11:36;100336.28;;;17.84;88.78
73952;BME280;62304;47.662;18.324;2022-09-01T01:14:40;100332.25;;;17.85;88.37
73952;BME280;62304;47.662;18.324;2022-09-01T01:17:47;100337.53;;;17.80;88.37
73952;BME280;62304;47.662;18.324;2022-09-01T01:21:06;100339.06;;;17.84;88.01
73952;BME280;62304;47.662;18.324;2022-09-01T01:24:33;100334.12;;;17.95;87.25
73952;BME280;62304;47.662;18.324;2022-09-01T01:27:37;100333.16;;;17.79;88.28
73952;BME280;62304;47.662;18.324;2022-09-01T01:30:51;100344.38;;;17.79;88.82
73952;BME280;62304;47.662;18.324;2022-09-01T01:33:55;100346.28;;;17.85;88.28
73952;BME280;62304;47.662;18.324;2022-09-01T01:37:00;100347.88;;;17.86;87.69
73952;BME280;62304;47.662;18.324;2022-09-01T01:40:04;100350.22;;;17.91;87.39
73952;BME280;62304;47.662;18.324;2022-09-01T01:43:07;100345.00;;;17.93;87.00
73952;BME280;62304;47.662;18.324;2022-09-01T01:46:13;100342.66;;;17.88;85.80
73952;BME280;62304;47.662;18.324;2022-09-01T01:49:25;100338.28;;;17.84;85.67
73952;BME280;62304;47.662;18.324;2022-09-01T01:52:30;100336.81;;;17.72;86.02
73952;BME280;62304;47.662;18.324;2022-09-01T01:55:35;100328.66;;;17.85;85.46
73952;BME280;62304;47.662;18.324;2022-09-01T01:58:39;100347.44;;;17.54;87.70
73952;BME280;62304;47.662;18.324;2022-09-01T02:01:44;100340.22;;;17.57;86.85
73952;BME280;62304;47.662;18.324;2022-09-01T02:04:51;100336.16;;;17.61;85.92
73952;BME280;62304;47.662;18.324;2022-09-01T02:08:00;100338.59;;;17.56;86.21
73952;BME280;62304;47.662;18.324;2022-09-01T02:11:07;100337.12;;;17.44;86.67
73952;BME280;62304;47.662;18.324;2022-09-01T02:14:11;100326.72;;;17.41;85.68
73952;BME280;62304;47.662;18.324;2022-09-01T02:17:15;100326.94;;;17.17;84.42
73952;BME280;62304;47.662;18.324;2022-09-01T02:20:19;100325.78;;;17.14;84.10
73952;BME280;62304;47.662;18.324;2022-09-01T02:23:24;100327.06;;;17.06;84.38
73952;BME280;62304;47.662;18.324;2022-09-01T02:26:29;100322.03;;;16.87;86.10
73952;BME280;62304;47.662;18.324;2022-09-01T02:29:33;100311.31;;;16.75;86.98
73952;BME280;62304;47.662;18.324;2022-09-01T02:32:45;100312.56;;;16.71;86.66
73952;BME280;62304;47.662;18.324;2022-09-01T02:35:52;100313.41;;;16.64;87.41
73952;BME280;62304;47.662;18.324;2022-09-01T02:38:55;100317.78;;;16.69;87.47
73952;BME280;62304;47.662;18.324;2022-09-01T02:42:01;100320.22;;;16.63;87.44
73952;BME280;62304;47.662;18.324;2022-09-01T02:45:04;100319.91;;;16.54;87.96
73952;BME280;62304;47.662;18.324;2022-09-01T02:48:17;100315.44;;;16.60;87.79
73952;BME280;62304;47.662;18.324;2022-09-01T02:51:22;100320.16;;;16.70;88.14
73952;BME280;62304;47.662;18.324;2022-09-01T02:54:31;100318.53;;;16.76;87.85
73952;BME280;62304;47.662;18.324;2022-09-01T02:57:34;100318.53;;;16.76;87.92
73952;BME280;62304;47.662;18.324;2022-09-01T03:00:37;100327.66;;;16.84;87.37
73952;BME280;62304;47.662;18.324;2022-09-01T03:03:41;100326.94;;;16.76;88.40
73952;BME280;62304;47.662;18.324;2022-09-01T03:06:44;100315.72;;;16.76;88.82
73952;BME280;62304;47.662;18.324;2022-09-01T03:09:49;100316.66;;;16.56;88.57
73952;BME280;62304;47.662;18.324;2022-09-01T03:12:55;100318.69;;;16.55;89.22
73952;BME280;62304;47.662;18.324;2022-09-01T03:15:59;100321.41;;;16.62;89.26
73952;BME280;62304;47.662;18.324;2022-09-01T03:19:02;100320.25;;;16.60;88.50
73952;BME280;62304;47.662;18.324;2022-09-01T03:22:05;100318.25;;;16.60;88.87
73952;BME280;62304;47.662;18.324;2022-09-01T03:25:08;100316.97;;;16.68;88.98
73952;BME280;62304;47.662;18.324;2022-09-01T03:28:12;100309.31;;;16.76;89.14
73952;BME280;62304;47.662;18.324;2022-09-01T03:31:16;100305.66;;;16.79;89.05
73952;BME280;62304;47.662;18.324;2022-09-01T03:34:21;100311.34;;;16.72;88.29
73952;BME280;62304;47.662;18.324;2022-09-01T03:37:25;100318.97;;;16.68;88.09
73952;BME280;62304;47.662;18.324;2022-09-01T03:40:32;100316.56;;;16.70;88.31
73952;BME280;62304;47.662;18.324;2022-09-01T03:43:35;100312.97;;;16.69;89.22
73952;BME280;62304;47.662;18.324;2022-09-01T03:46:47;100297.81;;;16.63;87.46
73952;BME280;62304;47.662;18.324;2022-09-01T03:49:50;100293.78;;;16.64;88.21
73952;BME280;62304;47.662;18.324;2022-09-01T03:52:56;100302.59;;;16.66;88.29
73952;BME280;62304;47.662;18.324;2022-09-01T03:56:01;100303.28;;;16.81;87.48
73952;BME280;62304;47.662;18.324;2022-09-01T03:59:05;100295.75;;;16.71;88.45
73952;BME280;62304;47.662;18.324;2022-09-01T04:02:11;100301.28;;;16.78;87.58
73952;BME280;62304;47.662;18.324;2022-09-01T04:05:16;100298.91;;;16.76;87.45
73952;BME280;62304;47.662;18.324;2022-09-01T04:08:21;100296.16;;;16.69;88.00
73952;BME280;62304;47.662;18.324;2022-09-01T04:11:36;100306.22;;;16.63;87.55
73952;BME280;62304;47.662;18.324;2022-09-01T04:14:47;100308.69;;;16.54;88.49
73952;BME280;62304;47.662;18.324;2022-09-01T04:17:50;100310.97;;;16.70;87.15
73952;BME280;62304;47.662;18.324;2022-09-01T04:21:11;100319.44;;;16.59;87.15
73952;BME280;62304;47.662;18.324;2022-09-01T04:24:17;100319.91;;;16.54;87.57
73952;BME280;62304;47.662;18.324;2022-09-01T04:27:20;100328.28;;;16.51;87.88
73952;BME280;62304;47.662;18.324;2022-09-01T04:30:26;100322.28;;;16.52;87.78
73952;BME280;62304;47.662;18.324;2022-09-01T04:33:35;100320.31;;;16.49;88.93
73952;BME280;62304;47.662;18.324;2022-09-01T04:36:43;100302.31;;;16.50;89.48
73952;BME280;62304;47.662;18.324;2022-09-01T04:39:50;100300.78;;;16.35;89.11
73952;BME280;62304;47.662;18.324;2022-09-01T04:42:58;100303.53;;;16.46;88.70
73952;BME280;62304;47.662;18.324;2022-09-01T04:46:01;100313.16;;;16.38;88.99
73952;BME280;62304;47.662;18.324;2022-09-01T04:49:05;100314.44;;;16.30;89.21
73952;BME280;62304;47.662;18.324;2022-09-01T04:52:15;100319.63;;;16.24;89.60
73952;BME280;62304;47.662;18.324;2022-09-01T04:55:18;100314.50;;;16.12;90.46
73952;BME280;62304;47.662;18.324;2022-09-01T04:58:23;100313.69;;;16.19;91.01
73952;BME280;62304;47.662;18.324;2022-09-01T05:01:27;100313.25;;;16.20;91.08
73952;BME280;62304;47.662;18.324;2022-09-01T05:04:31;100319.69;;;16.17;91.06
73952;BME280;62304;47.662;18.324;2022-09-01T05:07:35;100319.78;;;16.00;91.31
73952;BME280;62304;47.662;18.324;2022-09-01T05:10:41;100318.91;;;16.13;91.12
73952;BME280;62304;47.662;18.324;2022-09-01T05:13:47;100330.47;;;16.15;91.03
73952;BME280;62304;47.662;18.324;2022-09-01T05:16:58;100332.91;;;16.13;90.66
73952;BME280;62304;47.662;18.324;2022-09-01T05:20:01;100324.91;;;16.08;91.43
73952;BME280;62304;47.662;18.324;2022-09-01T05:23:04;100309.75;;;16.06;92.18
73952;BME280;62304;47.662;18.324;2022-09-01T05:26:20;100306.50;;;16.14;91.54
73952;BME280;62304;47.662;18.324;2022-09-01T05:29:25;100311.66;;;16.19;91.44
73952;BME280;62304;47.662;18.324;2022-09-01T05:32:29;100321.63;;;16.27;90.92
73952;BME280;62304;47.662;18.324;2022-09-01T05:35:33;100313.62;;;16.26;90.68
73952;BME280;62304;47.662;18.324;2022-09-01T05:38:37;100320.81;;;16.27;91.51
73952;BME280;62304;47.662;18.324;2022-09-01T05:41:42;100315.25;;;16.23;92.12
73952;BME280;62304;47.662;18.324;2022-09-01T05:44:46;100323.19;;;16.39;91.13
73952;BME280;62304;47.662;18.324;2022-09-01T05:47:54;100329.97;;;16.38;90.85
73952;BME280;62304;47.662;18.324;2022-09-01T05:50:57;100328.41;;;16.33;91.61
73952;BME280;62304;47.662;18.324;2022-09-01T05:54:02;100330.38;;;16.40;91.79
73952;BME280;62304;47.662;18.324;2022-09-01T05:57:09;100339.94;;;16.42;91.38
73952;BME280;62304;47.662;18.324;2022-09-01T06:00:32;100341.16;;;16.38;91.81
73952;BME280;62304;47.662;18.324;2022-09-01T06:03:38;100335.56;;;16.41;91.76
73952;BME280;62304;47.662;18.324;2022-09-01T06:06:44;100338.28;;;16.55;90.90
73952;BME280;62304;47.662;18.324;2022-09-01T06:10:08;100345.13;;;16.47;90.80
73952;BME280;62304;47.662;18.324;2022-09-01T06:13:11;100345.91;;;16.51;90.37
73952;BME280;62304;47.662;18.324;2022-09-01T06:16:17;100343.03;;;16.58;90.27
73952;BME280;62304;47.662;18.324;2022-09-01T06:19:21;100341.81;;;16.66;89.75
73952;BME280;62304;47.662;18.324;2022-09-01T06:22:26;100350.56;;;16.72;89.61
73952;BME280;62304;47.662;18.324;2022-09-01T06:25:29;100355.69;;;16.80;90.07
73952;BME280;62304;47.662;18.324;2022-09-01T06:28:33;100348.41;;;16.93;89.91
73952;BME280;62304;47.662;18.324;2022-09-01T06:31:36;100351.09;;;17.04;89.02
73952;BME280;62304;47.662;18.324;2022-09-01T06:34:42;100356.66;;;17.07;88.89
73952;BME280;62304;47.662;18.324;2022-09-01T06:37:46;100348.66;;;17.06;88.52
73952;BME280;62304;47.662;18.324;2022-09-01T06:41:00;100352.28;;;17.06;88.15
73952;BME280;62304;47.662;18.324;2022-09-01T06:44:03;100358.28;;;17.05;88.19
73952;BME280;62304;47.662;18.324;2022-09-01T06:47:06;100360.66;;;17.10;87.61
73952;BME280;62304;47.662;18.324;2022-09-01T06:50:13;100372.69;;;17.10;86.34
73952;BME280;62304;47.662;18.324;2022-09-01T06:53:41;100379.75;;;17.22;85.43
73952;BME280;62304;47.662;18.324;2022-09-01T06:56:45;100372.59;;;17.17;85.42
73952;BME280;62304;47.662;18.324;2022-09-01T07:00:11;100367.97;;;17.44;83.40
73952;BME280;62304;47.662;18.324;2022-09-01T07:03:22;100373.28;;;17.72;84.04
73952;BME280;62304;47.662;18.324;2022-09-01T07:06:28;100374.00;;;17.80;82.91
73952;BME280;62304;47.662;18.324;2022-09-01T07:09:52;100382.28;;;17.90;81.75
73952;BME280;62304;47.662;18.324;2022-09-01T07:13:19;100381.47;;;17.93;81.16
73952;BME280;62304;47.662;18.324;2022-09-01T07:16:27;100375.94;;;17.86;78.31
73952;BME280;62304;47.662;18.324;2022-09-01T07:19:37;100371.41;;;17.96;79.41
73952;BME280;62304;47.662;18.324;2022-09-01T07:22:56;100371.75;;;18.01;78.45
73952;BME280;62304;47.662;18.324;2022-09-01T07:26:11;100372.91;;;18.04;78.64
73952;BME280;62304;47.662;18.324;2022-09-01T07:29:28;100377.22;;;17.78;77.63
73952;BME280;62304;47.662;18.324;2022-09-01T07:32:32;100375.97;;;17.83;77.89
73952;BME280;62304;47.662;18.324;2022-09-01T07:35:50;100368.16;;;17.97;80.16
73952;BME280;62304;47.662;18.324;2022-09-01T07:39:17;100385.41;;;17.99;79.18
73952;BME280;62304;47.662;18.324;2022-09-01T07:42:41;100378.31;;;18.21;76.23
73952;BME280;62304;47.662;18.324;2022-09-01T07:46:11;100375.91;;;18.20;78.46
73952;BME280;62304;47.662;18.324;2022-09-01T07:49:34;100376.84;;;18.43;78.33
73952;BME280;62304;47.662;18.324;2022-09-01T07:52:59;100375.44;;;18.58;77.67
73952;BME280;62304;47.662;18.324;2022-09-01T07:56:08;100382.06;;;18.71;77.11
73952;BME280;62304;47.662;18.324;2022-09-01T07:59:12;100382.25;;;19.10;75.26
73952;BME280;62304;47.662;18.324;2022-09-01T08:02:20;100382.38;;;19.49;74.30
73952;BME280;62304;47.662;18.324;2022-09-01T08:05:25;100381.41;;;19.59;71.39
73952;BME280;62304;47.662;18.324;2022-09-01T08:08:29;100386.00;;;19.92;69.85
73952;BME280;62304;47.662;18.324;2022-09-01T08:11:32;100389.28;;;20.10;68.23
73952;BME280;62304;47.662;18.324;2022-09-01T08:14:56;100386.53;;;20.07;67.04
73952;BME280;62304;47.662;18.324;2022-09-01T08:18:19;100396.59;;;20.04;70.69
73952;BME280;62304;47.662;18.324;2022-09-01T08:21:23;100393.34;;;19.86;63.85
73952;BME280;62304;47.662;18.324;2022-09-01T08:24:29;100398.59;;;20.07;69.16
73952;BME280;62304;47.662;18.324;2022-09-01T08:27:33;100392.09;;;20.65;66.57
73952;BME280;62304;47.662;18.324;2022-09-01T08:30:40;100390.22;;;20.78;63.42
73952;BME280;62304;47.662;18.324;2022-09-01T08:33:53;100391.19;;;20.87;66.73
73952;BME280;62304;47.662;18.324;2022-09-01T08:36:57;100391.31;;;20.80;62.14
73952;BME280;62304;47.662;18.324;2022-09-01T08:40:00;100393.97;;;20.71;64.21
73952;BME280;62304;47.662;18.324;2022-09-01T08:46:32;100397.81;;;20.61;65.23
73952;BME280;62304;47.662;18.324;2022-09-01T08:49:38;100397.00;;;20.61;64.20
73952;BME280;62304;47.662;18.324;2022-09-01T08:52:54;100400.97;;;20.63;59.97
73952;BME280;62304;47.662;18.324;2022-09-01T08:56:11;100402.84;;;20.89;63.41
73952;BME280;62304;47.662;18.324;2022-09-01T08:59:15;100396.41;;;21.21;63.88
73952;BME280;62304;47.662;18.324;2022-09-01T09:02:52;100387.22;;;21.81;61.48
73952;BME280;62304;47.662;18.324;2022-09-01T09:09:39;100390.06;;;21.49;57.10
73952;BME280;62304;47.662;18.324;2022-09-01T09:16:46;100381.50;;;22.79;59.27
73952;BME280;62304;47.662;18.324;2022-09-01T09:19:54;100374.34;;;22.62;55.09
73952;BME280;62304;47.662;18.324;2022-09-01T09:23:01;100381.53;;;22.38;52.11
73952;BME280;62304;47.662;18.324;2022-09-01T09:26:11;100371.63;;;22.96;55.26
73952;BME280;62304;47.662;18.324;2022-09-01T09:29:18;100372.81;;;23.57;55.77
73952;BME280;62304;47.662;18.324;2022-09-01T09:36:18;100351.84;;;24.84;47.64
73952;BME280;62304;47.662;18.324;2022-09-01T09:39:26;100352.50;;;24.88;48.87
73952;BME280;62304;47.662;18.324;2022-09-01T09:42:31;100352.87;;;24.16;45.65
73952;BME280;62304;47.662;18.324;2022-09-01T09:45:39;100352.28;;;25.13;46.32
73952;BME280;62304;47.662;18.324;2022-09-01T09:48:44;100352.09;;;25.07;45.85
73952;BME280;62304;47.662;18.324;2022-09-01T09:55:22;100341.00;;;26.30;40.52
73952;BME280;62304;47.662;18.324;2022-09-01T09:58:39;100346.00;;;26.62;42.70
73952;BME280;62304;47.662;18.324;2022-09-01T10:01:44;100348.13;;;26.76;41.26
73952;BME280;62304;47.662;18.324;2022-09-01T10:04:47;100342.63;;;27.05;41.75
73952;BME280;62304;47.662;18.324;2022-09-01T10:07:56;100343.44;;;26.64;41.61
73952;BME280;62304;47.662;18.324;2022-09-01T10:11:00;100335.63;;;25.42;41.83
73952;BME280;62304;47.662;18.324;2022-09-01T10:14:24;100336.53;;;24.51;43.26
73952;BME280;62304;47.662;18.324;2022-09-01T10:17:50;100345.03;;;23.99;45.56
73952;BME280;62304;47.662;18.324;2022-09-01T10:21:20;100336.78;;;25.05;45.82
73952;BME280;62304;47.662;18.324;2022-09-01T10:24:35;100325.22;;;25.84;43.83
73952;BME280;62304;47.662;18.324;2022-09-01T10:27:50;100327.12;;;24.93;40.87
73952;BME280;62304;47.662;18.324;2022-09-01T10:30:56;100333.97;;;25.23;42.48
73952;BME280;62304;47.662;18.324;2022-09-01T10:34:03;100340.25;;;25.09;43.42
73952;BME280;62304;47.662;18.324;2022-09-01T10:37:10;100345.69;;;24.55;41.07
73952;BME280;62304;47.662;18.324;2022-09-01T10:46:43;100325.06;;;25.69;40.75
73952;BME280;62304;47.662;18.324;2022-09-01T10:52:58;100327.78;;;24.58;39.13
73952;BME280;62304;47.662;18.324;2022-09-01T10:59:27;100312.53;;;25.22;38.56
73952;BME280;62304;47.662;18.324;2022-09-01T11:02:34;100308.50;;;24.83;36.34
73952;BME280;62304;47.662;18.324;2022-09-01T11:15:49;100321.44;;;26.14;39.96
73952;BME280;62304;47.662;18.324;2022-09-01T11:18:53;100318.94;;;25.98;39.36
73952;BME280;62304;47.662;18.324;2022-09-01T11:25:45;100328.00;;;24.42;41.11
73952;BME280;62304;47.662;18.324;2022-09-01T11:32:58;100322.69;;;24.92;40.65
73952;BME280;62304;47.662;18.324;2022-09-01T11:36:13;100316.53;;;25.51;39.97
73952;BME280;62304;47.662;18.324;2022-09-01T11:42:26;100305.28;;;25.21;40.38
73952;BME280;62304;47.662;18.324;2022-09-01T11:45:32;100311.50;;;25.37;42.02
73952;BME280;62304;47.662;18.324;2022-09-01T11:48:38;100317.56;;;25.18;43.94
73952;BME280;62304;47.662;18.324;2022-09-01T11:51:45;100317.31;;;24.85;45.75
73952;BME280;62304;47.662;18.324;2022-09-01T11:54:49;100330.78;;;24.11;47.73
73952;BME280;62304;47.662;18.324;2022-09-01T11:57:52;100324.03;;;23.75;49.49
73952;BME280;62304;47.662;18.324;2022-09-01T12:00:57;100322.84;;;23.63;49.87
73952;BME280;62304;47.662;18.324;2022-09-01T12:04:24;100324.03;;;24.18;49.65
73952;BME280;62304;47.662;18.324;2022-09-01T12:09:02;100311.94;;;24.78;48.25
73952;BME280;62304;47.662;18.324;2022-09-01T12:12:26;100311.94;;;24.78;48.25
73952;BME280;62304;47.662;18.324;2022-09-01T12:15:32;100320.34;;;23.87;50.34
73952;BME280;62304;47.662;18.324;2022-09-01T12:18:50;100324.72;;;24.22;50.50
73952;BME280;62304;47.662;18.324;2022-09-01T12:22:06;100311.19;;;24.26;49.25
73952;BME280;62304;47.662;18.324;2022-09-01T12:25:27;100309.38;;;24.41;48.67
73952;BME280;62304;47.662;18.324;2022-09-01T12:28:31;100313.75;;;24.33;49.50
73952;BME280;62304;47.662;18.324;2022-09-01T12:31:39;100315.69;;;24.14;49.05
73952;BME280;62304;47.662;18.324;2022-09-01T12:34:56;100305.94;;;24.46;48.70
73952;BME280;62304;47.662;18.324;2022-09-01T12:38:24;100308.31;;;24.47;48.43
73952;BME280;62304;47.662;18.324;2022-09-01T12:41:38;100299.19;;;24.52;47.73
73952;BME280;62304;47.662;18.324;2022-09-01T12:45:03;100302.56;;;24.99;46.80
73952;BME280;62304;47.662;18.324;2022-09-01T12:48:06;100289.88;;;25.49;45.78
73952;BME280;62304;47.662;18.324;2022-09-01T12:51:23;100284.66;;;25.74;45.12
73952;BME280;62304;47.662;18.324;2022-09-01T12:54:32;100284.81;;;25.62;45.04
73952;BME280;62304;47.662;18.324;2022-09-01T12:57:44;100279.38;;;25.10;46.00
73952;BME280;62304;47.662;18.324;2022-09-01T13:01:03;100291.63;;;24.80;45.66
73952;BME280;62304;47.662;18.324;2022-09-01T13:07:26;100293.81;;;24.85;45.24
73952;BME280;62304;47.662;18.324;2022-09-01T13:10:32;100300.16;;;24.89;44.75
73952;BME280;62304;47.662;18.324;2022-09-01T13:13:39;100300.75;;;25.32;43.80
73952;BME280;62304;47.662;18.324;2022-09-01T13:16:44;100293.00;;;25.24;44.68
73952;BME280;62304;47.662;18.324;2022-09-01T13:19:47;100293.78;;;25.24;44.31
73952;BME280;62304;47.662;18.324;2022-09-01T13:22:50;100296.34;;;25.40;44.96
73952;BME280;62304;47.662;18.324;2022-09-01T13:25:56;100297.00;;;24.87;44.57
73952;BME280;62304;47.662;18.324;2022-09-01T13:29:00;100276.94;;;25.75;43.08
73952;BME280;62304;47.662;18.324;2022-09-01T13:32:03;100270.56;;;25.17;44.18
73952;BME280;62304;47.662;18.324;2022-09-01T13:35:24;100277.87;;;25.54;43.72
73952;BME280;62304;47.662;18.324;2022-09-01T13:38:29;100281.75;;;26.19;43.10
73952;BME280;62304;47.662;18.324;2022-09-01T13:41:33;100282.28;;;25.37;44.60
73952;BME280;62304;47.662;18.324;2022-09-01T13:44:37;100286.75;;;26.42;42.86
73952;BME280;62304;47.662;18.324;2022-09-01T13:47:44;100284.16;;;26.62;42.49
73952;BME280;62304;47.662;18.324;2022-09-01T13:51:07;100278.25;;;26.75;42.31
73952;BME280;62304;47.662;18.324;2022-09-01T13:54:17;100273.75;;;26.59;42.26
73952;BME280;62304;47.662;18.324;2022-09-01T13:57:20;100276.78;;;26.56;42.35
73952;BME280;62304;47.662;18.324;2022-09-01T14:00:30;100276.59;;;25.82;42.93
73952;BME280;62304;47.662;18.324;2022-09-01T14:03:33;100276.28;;;25.98;43.60
73952;BME280;62304;47.662;18.324;2022-09-01T14:06:40;100276.22;;;26.25;42.96
73952;BME280;62304;47.662;18.324;2022-09-01T14:09:45;100283.53;;;26.08;42.83
73952;BME280;62304;47.662;18.324;2022-09-01T14:12:49;100278.16;;;25.83;43.03
73952;BME280;62304;47.662;18.324;2022-09-01T14:15:52;100274.06;;;25.84;43.51
73952;BME280;62304;47.662;18.324;2022-09-01T14:18:56;100276.59;;;26.09;43.31
73952;BME280;62304;47.662;18.324;2022-09-01T14:21:59;100277.56;;;25.43;44.01
73952;BME280;62304;47.662;18.324;2022-09-01T14:25:01;100275.03;;;25.27;44.12
73952;BME280;62304;47.662;18.324;2022-09-01T14:28:04;100276.00;;;25.42;44.05
73952;BME280;62304;47.662;18.324;2022-09-01T14:31:10;100274.56;;;25.55;43.60
73952;BME280;62304;47.662;18.324;2022-09-01T14:34:13;100270.94;;;25.37;43.93
73952;BME280;62304;47.662;18.324;2022-09-01T14:37:17;100269.34;;;25.27;43.62
73952;BME280;62304;47.662;18.324;2022-09-01T14:40:21;100272.03;;;24.64;45.76
73952;BME280;62304;47.662;18.324;2022-09-01T14:43:25;100265.59;;;24.42;46.21
73952;BME280;62304;47.662;18.324;2022-09-01T14:46:29;100266.22;;;24.46;46.29
73952;BME280;62304;47.662;18.324;2022-09-01T14:49:37;100262.56;;;24.36;47.56
73952;BME280;62304;47.662;18.324;2022-09-01T14:52:40;100277.06;;;24.08;47.44
73952;BME280;62304;47.662;18.324;2022-09-01T14:55:42;100274.44;;;23.70;47.75
73952;BME280;62304;47.662;18.324;2022-09-01T14:58:46;100270.87;;;23.79;48.33
73952;BME280;62304;47.662;18.324;2022-09-01T15:01:49;100283.09;;;23.54;48.77
73952;BME280;62304;47.662;18.324;2022-09-01T15:04:53;100279.97;;;23.52;48.30
73952;BME280;62304;47.662;18.324;2022-09-01T15:07:56;100273.72;;;23.23;49.24
73952;BME280;62304;47.662;18.324;2022-09-01T15:11:00;100283.63;;;22.94;50.82
73952;BME280;62304;47.662;18.324;2022-09-01T15:14:02;100291.97;;;23.10;49.47
73952;BME280;62304;47.662;18.324;2022-09-01T15:17:05;100282.72;;;22.84;49.41
73952;BME280;62304;47.662;18.324;2022-09-01T15:20:09;100278.22;;;22.87;50.31
73952;BME280;62304;47.662;18.324;2022-09-01T15:23:33;100282.81;;;22.81;50.92
73952;BME280;62304;47.662;18.324;2022-09-01T15:26:36;100282.62;;;22.63;51.39
73952;BME280;62304;47.662;18.324;2022-09-01T15:29:40;100280.84;;;22.44;51.20
73952;BME280;62304;47.662;18.324;2022-09-01T15:32:51;100280.53;;;22.26;51.45
73952;BME280;62304;47.662;18.324;2022-09-01T15:35:55;100289.38;;;22.28;53.49
73952;BME280;62304;47.662;18.324;2022-09-01T15:38:58;100287.13;;;22.23;53.11
73952;BME280;62304;47.662;18.324;2022-09-01T15:42:02;100282.47;;;22.16;52.95
73952;BME280;62304;47.662;18.324;2022-09-01T15:45:08;100282.44;;;22.04;53.29
73952;BME280;62304;47.662;18.324;2022-09-01T15:48:12;100282.75;;;21.93;51.80
73952;BME280;62304;47.662;18.324;2022-09-01T15:54:24;100287.28;;;21.91;54.34
73952;BME280;62304;47.662;18.324;2022-09-01T15:57:31;100289.41;;;21.87;53.59
73952;BME280;62304;47.662;18.324;2022-09-01T16:00:35;100284.41;;;21.78;54.64
73952;BME280;62304;47.662;18.324;2022-09-01T16:03:40;100287.00;;;21.73;56.11
73952;BME280;62304;47.662;18.324;2022-09-01T16:06:42;100285.69;;;21.61;56.03
73952;BME280;62304;47.662;18.324;2022-09-01T16:09:46;100281.06;;;21.55;56.08
73952;BME280;62304;47.662;18.324;2022-09-01T16:12:50;100280.44;;;21.47;57.86
73952;BME280;62304;47.662;18.324;2022-09-01T16:22:55;100287.81;;;21.29;59.02
73952;BME280;62304;47.662;18.324;2022-09-01T16:25:59;100289.50;;;21.26;57.34
73952;BME280;62304;47.662;18.324;2022-09-01T16:29:11;100287.19;;;21.21;57.61
73952;BME280;62304;47.662;18.324;2022-09-01T16:32:15;100288.28;;;21.11;57.84
73952;BME280;62304;47.662;18.324;2022-09-01T16:35:22;100289.09;;;20.96;59.04
73952;BME280;62304;47.662;18.324;2022-09-01T16:38:39;100288.47;;;20.88;59.16
73952;BME280;62304;47.662;18.324;2022-09-01T16:48:29;100281.41;;;20.64;59.88
73952;BME280;62304;47.662;18.324;2022-09-01T16:55:10;100290.91;;;20.54;60.72
73952;BME280;62304;47.662;18.324;2022-09-01T16:58:20;100288.09;;;20.54;59.68
73952;BME280;62304;47.662;18.324;2022-09-01T17:01:34;100293.53;;;20.45;59.71
73952;BME280;62304;47.662;18.324;2022-09-01T17:04:51;100289.38;;;20.34;60.38
73952;BME280;62304;47.662;18.324;2022-09-01T17:08:23;100287.75;;;20.33;60.42
73952;BME280;62304;47.662;18.324;2022-09-01T17:11:51;100290.97;;;20.35;59.97
73952;BME280;62304;47.662;18.324;2022-09-01T17:15:07;100289.81;;;20.33;60.47
73952;BME280;62304;47.662;18.324;2022-09-01T17:18:27;100290.03;;;20.22;61.44
73952;BME280;62304;47.662;18.324;2022-09-01T17:21:55;100295.84;;;20.15;62.75
73952;BME280;62304;47.662;18.324;2022-09-01T17:25:10;100298.66;;;20.15;63.45
73952;BME280;62304;47.662;18.324;2022-09-01T17:29:03;100291.94;;;20.09;63.09